createdAt,value
2018-06-25T00:00:29.921Z,11.25
2018-06-25T00:02:57.955Z,9.73
2018-06-25T00:05:25.980Z,12.28
2018-06-25T00:07:54.947Z,11.43
2018-06-25T00:10:22.972Z,10.80
2018-06-25T00:12:50.999Z,12.90
2018-06-25T00:15:19.015Z,9.63
2018-06-25T00:17:47.035Z,9.58
2018-06-25T00:20:15.076Z,10.28
2018-06-25T00:22:43.099Z,9.90
2018-06-25T00:25:11.096Z,8.60
2018-06-25T00:27:39.128Z,12.18
2018-06-25T00:30:07.159Z,11.28
2018-06-25T00:32:35.185Z,10.05
2018-06-25T00:35:03.030Z,12.00
2018-06-25T00:37:31.068Z,10.40
2018-06-25T00:39:59.100Z,11.07
2018-06-25T00:42:27.119Z,10.32
2018-06-25T00:44:55.139Z,11.57
2018-06-25T00:47:23.164Z,9.70
2018-06-25T00:49:51.184Z,8.45
2018-06-25T00:52:19.216Z,9.90
2018-06-25T00:54:47.236Z,14.37
2018-06-25T00:57:15.255Z,8.20
2018-06-25T00:59:51.689Z,12.53
2018-06-25T01:02:20.181Z,11.75
2018-06-25T01:04:48.272Z,8.78
2018-06-25T01:07:16.720Z,14.43
2018-06-25T01:09:44.753Z,10.30
2018-06-25T01:12:13.068Z,11.68
2018-06-25T01:14:41.116Z,11.15
2018-06-25T01:17:09.624Z,11.22
2018-06-25T01:19:37.752Z,10.35
2018-06-25T01:22:06.412Z,14.05
2018-06-25T01:24:34.448Z,10.80
2018-06-25T01:27:02.544Z,11.93
2018-06-25T01:29:30.568Z,11.12
2018-06-25T01:31:58.647Z,14.10
2018-06-25T01:34:26.696Z,12.15
2018-06-25T01:36:54.726Z,10.05
2018-06-25T01:39:22.748Z,10.13
2018-06-25T01:41:50.772Z,12.57
2018-06-25T01:44:18.591Z,9.65
2018-06-25T01:46:46.620Z,9.98
2018-06-25T01:49:14.646Z,10.60
2018-06-25T01:51:42.668Z,13.03
2018-06-25T01:54:10.676Z,10.55
2018-06-25T01:56:38.716Z,10.63
2018-06-25T01:59:06.740Z,10.45
2018-06-25T02:01:34.764Z,10.88
2018-06-25T02:04:02.800Z,8.23
2018-06-25T02:06:30.620Z,9.75
2018-06-25T02:08:58.649Z,10.85
2018-06-25T02:11:26.683Z,11.28
2018-06-25T02:13:54.688Z,10.20
2018-06-25T02:16:22.555Z,11.85
2018-06-25T02:18:50.787Z,9.93
2018-06-25T02:21:18.784Z,9.50
2018-06-25T02:23:46.819Z,12.25
2018-06-25T02:26:14.832Z,11.88
2018-06-25T02:28:42.849Z,9.78
2018-06-25T02:31:10.863Z,12.65
2018-06-25T02:33:38.711Z,8.38
2018-06-25T02:36:06.740Z,10.85
2018-06-25T02:38:34.787Z,8.23
2018-06-25T02:41:02.821Z,9.13
2018-06-25T02:43:30.881Z,11.68
2018-06-25T02:45:58.906Z,11.10
2018-06-25T02:48:26.928Z,10.58
2018-06-25T02:50:54.972Z,10.78
2018-06-25T02:53:22.990Z,9.63
2018-06-25T02:55:50.811Z,9.50
2018-06-25T02:58:18.855Z,10.90
2018-06-25T03:00:46.897Z,12.68
2018-06-25T03:03:14.929Z,9.53
2018-06-25T03:05:42.966Z,11.65
2018-06-25T03:08:10.990Z,11.95
2018-06-25T03:10:39.016Z,12.63
2018-06-25T03:13:07.068Z,14.23
2018-06-25T03:15:35.088Z,10.58
2018-06-25T03:18:03.120Z,10.25
2018-06-25T03:20:31.155Z,9.48
2018-06-25T03:22:58.978Z,13.90
2018-06-25T03:25:27.028Z,8.05
2018-06-25T03:27:55.072Z,9.28
2018-06-25T03:30:23.116Z,11.50
2018-06-25T03:32:50.943Z,9.70
2018-06-25T03:35:18.984Z,12.40
2018-06-25T03:37:47.014Z,14.73
2018-06-25T03:40:15.056Z,10.60
2018-06-25T03:42:43.075Z,12.90
2018-06-25T03:45:11.100Z,10.48
2018-06-25T03:47:39.133Z,14.10
2018-06-25T03:50:07.207Z,12.90
2018-06-25T03:52:35.231Z,9.80
2018-06-25T03:55:03.296Z,10.13
2018-06-25T03:57:31.323Z,9.03
2018-06-25T03:59:59.347Z,12.63
2018-06-25T04:02:27.404Z,12.70
2018-06-25T04:04:55.496Z,9.13
2018-06-25T04:07:23.334Z,12.45
2018-06-25T04:09:51.353Z,12.50
2018-06-25T04:12:19.383Z,13.40
2018-06-25T04:14:47.420Z,11.18
2018-06-25T04:17:15.460Z,12.35
2018-06-25T04:19:43.491Z,12.63
2018-06-25T04:22:11.516Z,11.40
2018-06-25T04:24:39.618Z,13.25
2018-06-25T04:27:07.649Z,9.95
2018-06-25T04:29:35.696Z,13.93
2018-06-25T04:32:03.536Z,12.25
2018-06-25T04:34:31.535Z,11.60
2018-06-25T04:36:59.387Z,11.70
2018-06-25T04:39:27.207Z,12.33
2018-06-25T04:41:55.257Z,11.83
2018-06-25T04:44:23.284Z,12.47
2018-06-25T04:46:51.308Z,10.95
2018-06-25T04:49:19.345Z,12.45
2018-06-25T04:51:47.364Z,10.08
2018-06-25T04:54:15.404Z,14.05
2018-06-25T04:56:43.436Z,12.30
2018-06-25T04:59:11.468Z,12.70
2018-06-25T05:01:39.514Z,11.20
2018-06-25T05:04:07.544Z,12.88
2018-06-25T05:06:35.600Z,11.10
2018-06-25T05:09:05.741Z,13.13
2018-06-25T05:11:33.790Z,13.25
2018-06-25T05:14:01.828Z,12.30
2018-06-25T05:16:29.880Z,9.80
2018-06-25T05:18:57.909Z,9.88
2018-06-25T05:21:25.936Z,11.63
2018-06-25T05:23:53.960Z,11.65
2018-06-25T05:26:21.997Z,13.77
2018-06-25T05:28:50.018Z,12.30
2018-06-25T05:31:18.080Z,11.43
2018-06-25T05:33:46.107Z,14.95
2018-06-25T05:36:14.521Z,12.40
2018-06-25T05:38:42.572Z,12.25
2018-06-25T05:41:10.637Z,13.30
2018-06-25T05:43:38.702Z,14.55
2018-06-25T05:46:06.961Z,14.93
2018-06-25T05:48:34.992Z,16.75
2018-06-25T05:51:03.036Z,17.48
2018-06-25T05:53:31.077Z,13.55
2018-06-25T05:55:59.131Z,16.67
2018-06-25T05:58:27.160Z,15.30
2018-06-25T06:00:54.995Z,14.07
2018-06-25T06:03:23.134Z,16.57
2018-06-25T06:05:51.162Z,16.43
2018-06-25T06:08:19.190Z,16.60
2018-06-25T06:10:47.232Z,15.98
2018-06-25T06:13:15.253Z,17.02
2018-06-25T06:15:43.309Z,14.63
2018-06-25T06:18:11.344Z,13.45
2018-06-25T06:20:39.393Z,13.50
2018-06-25T06:23:07.231Z,14.25
2018-06-25T06:25:35.300Z,11.97
2018-06-25T06:28:03.341Z,16.17
2018-06-25T06:30:31.413Z,15.32
2018-06-25T06:32:59.511Z,14.10
2018-06-25T06:35:27.588Z,17.20
2018-06-25T06:37:55.636Z,18.15
2018-06-25T06:40:23.684Z,19.37
2018-06-25T06:42:51.752Z,20.93
2018-06-25T06:45:19.812Z,17.30
2018-06-25T06:47:47.840Z,16.10
2018-06-25T06:50:15.904Z,18.92
2018-06-25T06:52:43.960Z,13.40
2018-06-25T06:55:11.988Z,12.80
2018-06-25T06:57:40.080Z,18.30
2018-06-25T07:00:08.088Z,15.25
2018-06-25T07:02:36.136Z,15.20
2018-06-25T07:05:04.192Z,16.67
2018-06-25T07:07:32.237Z,15.28
2018-06-25T07:10:00.269Z,15.83
2018-06-25T07:12:28.296Z,17.90
2018-06-25T07:14:56.320Z,17.00
2018-06-25T07:17:24.347Z,20.80
2018-06-25T07:19:52.376Z,19.45
2018-06-25T07:22:20.408Z,18.07
2018-06-25T07:24:48.424Z,22.30
2018-06-25T07:27:16.457Z,19.82
2018-06-25T07:29:44.511Z,16.97
2018-06-25T07:32:12.601Z,19.70
2018-06-25T07:34:40.678Z,21.97
2018-06-25T07:37:08.830Z,20.65
2018-06-25T07:39:37.202Z,19.15
2018-06-25T07:42:05.253Z,22.10
2018-06-25T07:44:33.301Z,19.17
2018-06-25T07:47:01.388Z,19.03
2018-06-25T07:49:29.408Z,23.15
2018-06-25T07:51:57.488Z,23.40
2018-06-25T07:54:25.528Z,18.90
2018-06-25T07:56:53.669Z,18.02
2018-06-25T07:59:21.687Z,20.77
2018-06-25T08:01:49.748Z,16.05
2018-06-25T08:04:17.808Z,19.20
2018-06-25T08:06:45.854Z,14.23
2018-06-25T08:09:13.896Z,12.95
2018-06-25T08:11:41.944Z,17.50
2018-06-25T08:14:10.012Z,13.50
2018-06-25T08:16:38.043Z,13.85
2018-06-25T08:19:06.237Z,18.55
2018-06-25T08:21:34.312Z,17.48
2018-06-25T08:24:02.345Z,15.25
2018-06-25T08:26:30.405Z,14.13
2018-06-25T08:28:58.452Z,14.55
2018-06-25T08:31:26.274Z,17.47
2018-06-25T08:33:54.337Z,17.00
2018-06-25T08:36:22.317Z,17.30
2018-06-25T08:38:50.362Z,15.58
2018-06-25T08:41:18.416Z,17.27
2018-06-25T08:43:46.468Z,15.40
2018-06-25T08:46:14.489Z,14.70
2018-06-25T08:48:42.588Z,17.77
2018-06-25T08:51:10.600Z,16.97
2018-06-25T08:53:38.624Z,14.23
2018-06-25T08:56:06.688Z,15.88
2018-06-25T08:58:34.754Z,17.02
2018-06-25T09:01:02.795Z,17.73
2018-06-25T09:03:30.820Z,14.90
2018-06-25T09:05:58.832Z,13.98
2018-06-25T09:08:26.886Z,17.60
2018-06-25T09:10:54.904Z,16.70
2018-06-25T09:13:22.941Z,16.47
2018-06-25T09:15:50.956Z,15.98
2018-06-25T09:18:18.980Z,16.02
2018-06-25T09:20:47.003Z,16.07
2018-06-25T09:23:15.020Z,19.20
2018-06-25T09:25:43.060Z,17.25
2018-06-25T09:28:11.090Z,20.23
2018-06-25T09:30:39.219Z,20.02
2018-06-25T09:33:07.255Z,21.70
2018-06-25T09:35:35.088Z,19.80
2018-06-25T09:38:03.115Z,19.42
2018-06-25T09:40:31.144Z,18.67
2018-06-25T09:42:59.180Z,20.77
2018-06-25T09:45:27.191Z,16.55
2018-06-25T09:47:55.223Z,15.48
2018-06-25T09:50:23.265Z,14.95
2018-06-25T09:52:51.338Z,20.82
2018-06-25T09:55:19.368Z,15.53
2018-06-25T09:57:47.389Z,20.27
2018-06-25T10:00:20.880Z,15.08
2018-06-25T10:02:48.904Z,19.85
2018-06-25T10:05:16.963Z,18.02
2018-06-25T10:07:46.948Z,17.57
2018-06-25T10:10:19.626Z,15.10
2018-06-25T10:12:50.162Z,18.32
2018-06-25T10:15:19.294Z,18.25
2018-06-25T10:17:48.263Z,20.12
2018-06-25T10:20:16.327Z,17.65
2018-06-25T10:22:44.379Z,17.00
2018-06-25T10:25:12.422Z,17.75
2018-06-25T10:27:40.459Z,18.23
2018-06-25T10:30:08.512Z,20.30
2018-06-25T10:32:36.548Z,16.60
2018-06-25T10:35:04.626Z,11.95
2018-06-25T10:37:32.664Z,16.85
2018-06-25T10:40:00.710Z,14.85
2018-06-25T10:42:28.862Z,14.27
2018-06-25T10:44:56.764Z,12.95
2018-06-25T10:47:24.792Z,14.87
2018-06-25T10:49:52.862Z,16.67
2018-06-25T10:52:20.892Z,17.40
2018-06-25T10:54:48.939Z,17.40
2018-06-25T10:57:16.969Z,13.22
2018-06-25T10:59:45.127Z,12.18
2018-06-25T11:02:13.056Z,11.70
2018-06-25T11:04:41.091Z,14.93
2018-06-25T11:07:09.163Z,9.90
2018-06-25T11:09:37.147Z,13.40
2018-06-25T11:12:05.256Z,10.78
2018-06-25T11:14:33.311Z,12.37
2018-06-25T11:17:01.347Z,10.50
2018-06-25T11:19:29.406Z,13.50
2018-06-25T11:21:57.452Z,15.43
2018-06-25T11:24:25.494Z,13.38
2018-06-25T11:26:53.617Z,11.40
2018-06-25T11:29:21.656Z,13.43
2018-06-25T11:31:49.719Z,14.35
2018-06-25T11:34:17.748Z,9.98
2018-06-25T11:36:45.780Z,13.10
2018-06-25T11:39:13.816Z,16.42
2018-06-25T11:41:41.684Z,15.98
2018-06-25T11:44:09.713Z,13.55
2018-06-25T11:46:37.757Z,12.43
2018-06-25T11:49:05.952Z,11.85
2018-06-25T11:51:33.980Z,13.55
2018-06-25T11:54:02.026Z,12.10
2018-06-25T11:56:30.065Z,10.78
2018-06-25T11:58:58.120Z,10.50
2018-06-25T12:01:26.191Z,14.40
2018-06-25T12:03:54.204Z,13.50
2018-06-25T12:06:22.244Z,17.07
2018-06-25T12:08:50.294Z,13.10
2018-06-25T12:11:18.319Z,13.60
2018-06-25T12:13:46.340Z,12.23
2018-06-25T12:16:14.544Z,12.13
2018-06-25T12:18:42.584Z,11.35
2018-06-25T12:21:10.656Z,11.67
2018-06-25T12:23:38.680Z,10.55
2018-06-25T12:26:06.520Z,13.13
2018-06-25T12:28:34.563Z,11.80
2018-06-25T12:31:02.644Z,11.10
2018-06-25T12:33:30.716Z,13.68
2018-06-25T12:35:58.768Z,14.63
2018-06-25T12:38:26.808Z,15.35
2018-06-25T12:40:54.852Z,15.90
2018-06-25T12:43:22.889Z,11.12
2018-06-25T12:45:50.922Z,12.23
2018-06-25T12:48:18.942Z,12.23
2018-06-25T12:50:46.965Z,12.45
2018-06-25T12:53:15.020Z,14.50
2018-06-25T12:55:42.860Z,12.07
2018-06-25T12:58:10.897Z,12.93
2018-06-25T13:00:38.933Z,10.57
2018-06-25T13:03:07.280Z,11.88
2018-06-25T13:05:35.320Z,10.68
2018-06-25T13:08:03.363Z,15.35
2018-06-25T13:10:31.399Z,10.13
2018-06-25T13:12:59.428Z,12.70
2018-06-25T13:15:27.495Z,14.83
2018-06-25T13:17:55.536Z,11.75
2018-06-25T13:20:23.591Z,10.43
2018-06-25T13:22:51.415Z,10.82
2018-06-25T13:25:19.477Z,12.07
2018-06-25T13:27:47.504Z,12.75
2018-06-25T13:30:15.339Z,9.35
2018-06-25T13:32:43.380Z,11.45
2018-06-25T13:35:11.437Z,9.98
2018-06-25T13:37:39.451Z,9.65
2018-06-25T13:40:07.477Z,13.87
2018-06-25T13:42:35.507Z,9.70
2018-06-25T13:45:03.468Z,10.38
2018-06-25T13:47:31.512Z,9.73
2018-06-25T13:49:59.559Z,11.45
2018-06-25T13:52:27.586Z,10.53
2018-06-25T13:54:55.621Z,11.18
2018-06-25T13:57:23.664Z,10.98
2018-06-25T13:59:51.681Z,10.00
2018-06-25T14:02:19.865Z,8.75
2018-06-25T14:04:47.695Z,11.22
2018-06-25T14:07:15.742Z,9.00
2018-06-25T14:09:43.764Z,9.73
2018-06-25T14:12:11.784Z,13.27
2018-06-25T14:14:39.888Z,11.43
2018-06-25T14:17:07.983Z,10.93
2018-06-25T14:19:35.957Z,12.20
2018-06-25T14:22:04.009Z,12.73
2018-06-25T14:24:37.492Z,11.68
2018-06-25T14:27:10.279Z,12.85
2018-06-25T14:29:38.368Z,13.18
2018-06-25T14:32:14.965Z,10.83
2018-06-25T14:34:47.606Z,12.53
2018-06-25T14:37:16.009Z,16.45
2018-06-25T14:39:44.048Z,14.28
2018-06-25T14:42:12.075Z,13.32
2018-06-25T14:44:40.112Z,14.80
2018-06-25T14:47:08.159Z,13.75
2018-06-25T14:49:36.204Z,15.10
2018-06-25T14:52:04.237Z,13.10
2018-06-25T14:54:32.268Z,15.72
2018-06-25T14:57:00.318Z,14.47
2018-06-25T14:59:28.356Z,15.10
2018-06-25T15:01:56.432Z,12.70
2018-06-25T15:04:24.452Z,12.00
2018-06-25T15:06:52.548Z,11.75
2018-06-25T15:09:20.396Z,11.55
2018-06-25T15:11:48.431Z,13.20
2018-06-25T15:14:16.464Z,11.95
2018-06-25T15:16:44.476Z,13.03
2018-06-25T15:19:12.533Z,12.33
2018-06-25T15:21:40.565Z,13.70
2018-06-25T15:24:08.596Z,13.77
2018-06-25T15:26:36.635Z,11.55
2018-06-25T15:29:04.676Z,13.30
2018-06-25T15:31:32.733Z,13.68
2018-06-25T15:34:00.766Z,10.97
2018-06-25T15:36:28.807Z,13.85
2018-06-25T15:38:56.832Z,10.85
2018-06-25T15:41:24.892Z,13.80
2018-06-25T15:43:52.924Z,13.68
2018-06-25T15:46:20.961Z,11.73
2018-06-25T15:48:48.996Z,9.35
2018-06-25T15:51:17.056Z,9.33
2018-06-25T15:53:45.129Z,12.07
2018-06-25T15:56:13.137Z,9.10
2018-06-25T15:58:41.215Z,10.32
2018-06-25T16:01:09.039Z,9.58
2018-06-25T16:03:37.121Z,9.90
2018-06-25T16:06:05.152Z,12.65
2018-06-25T16:08:33.200Z,8.77
2018-06-25T16:11:01.033Z,11.28
2018-06-25T16:13:29.044Z,10.70
2018-06-25T16:15:57.105Z,11.45
2018-06-25T16:18:25.132Z,9.18
2018-06-25T16:20:53.224Z,10.73
2018-06-25T16:23:21.290Z,10.70
2018-06-25T16:25:49.351Z,11.80
2018-06-25T16:28:17.380Z,9.80
2018-06-25T16:30:45.420Z,9.45
2018-06-25T16:33:13.460Z,8.93
2018-06-25T16:35:41.505Z,10.45
2018-06-25T16:38:09.536Z,13.28
2018-06-25T16:40:37.673Z,9.65
2018-06-25T16:43:05.733Z,11.35
2018-06-25T16:45:33.765Z,10.90
2018-06-25T16:48:01.809Z,10.73
2018-06-25T16:50:29.636Z,13.60
2018-06-25T16:52:57.731Z,10.30
2018-06-25T16:55:25.781Z,14.23
2018-06-25T16:57:53.822Z,10.98
2018-06-25T17:00:21.832Z,10.70
2018-06-25T17:02:49.847Z,14.03
2018-06-25T17:05:17.928Z,11.33
2018-06-25T17:07:45.975Z,11.50
2018-06-25T17:10:14.005Z,11.35
2018-06-25T17:12:42.049Z,13.50
2018-06-25T17:15:10.077Z,11.25
2018-06-25T17:17:37.910Z,13.08
2018-06-25T17:20:05.940Z,13.93
2018-06-25T17:22:33.980Z,13.13
2018-06-25T17:25:01.896Z,13.10
2018-06-25T17:27:29.999Z,11.78
2018-06-25T17:29:58.056Z,13.03
2018-06-25T17:32:26.136Z,12.20
2018-06-25T17:34:54.172Z,10.80
2018-06-25T17:37:22.608Z,16.57
2018-06-25T17:39:50.652Z,12.75
2018-06-25T17:42:18.732Z,14.60
2018-06-25T17:44:46.740Z,13.37
2018-06-25T17:47:14.813Z,15.72
2018-06-25T17:49:42.871Z,13.18
2018-06-25T17:52:10.974Z,15.35
2018-06-25T17:54:39.047Z,14.50
2018-06-25T17:57:07.040Z,14.95
2018-06-25T17:59:35.077Z,16.95
2018-06-25T18:02:03.112Z,16.60
2018-06-25T18:04:30.948Z,17.77
2018-06-25T18:06:59.008Z,14.55
2018-06-25T18:09:27.068Z,17.67
2018-06-25T18:11:55.868Z,18.97
2018-06-25T18:14:23.905Z,18.98
2018-06-25T18:16:51.979Z,18.17
2018-06-25T18:19:20.035Z,18.05
2018-06-25T18:21:48.063Z,18.70
2018-06-25T18:24:16.106Z,20.17
2018-06-25T18:26:44.139Z,17.55
2018-06-25T18:29:12.160Z,15.30
2018-06-25T18:31:40.236Z,18.75
2018-06-25T18:34:08.330Z,16.15
2018-06-25T18:36:36.167Z,18.37
2018-06-25T18:39:07.340Z,22.42
2018-06-25T18:41:36.166Z,15.80
2018-06-25T18:44:04.208Z,16.20
2018-06-25T18:46:32.035Z,18.47
2018-06-25T18:49:00.080Z,16.73
2018-06-25T18:51:28.112Z,17.35
2018-06-25T18:53:56.212Z,16.52
2018-06-25T18:56:24.267Z,18.00
2018-06-25T18:58:52.304Z,20.75
2018-06-25T19:01:20.349Z,17.73
2018-06-25T19:03:48.506Z,21.37
2018-06-25T19:06:16.596Z,19.27
2018-06-25T19:08:44.640Z,20.97
2018-06-25T19:11:12.692Z,20.70
2018-06-25T19:13:40.731Z,21.57
2018-06-25T19:16:08.788Z,18.00
2018-06-25T19:18:36.834Z,22.73
2018-06-25T19:21:04.874Z,21.27
2018-06-25T19:23:32.941Z,23.60
2018-06-25T19:26:00.760Z,22.93
2018-06-25T19:28:28.797Z,20.45
2018-06-25T19:30:57.257Z,20.68
2018-06-25T19:33:25.285Z,21.80
2018-06-25T19:35:53.441Z,23.62
2018-06-25T19:38:21.500Z,20.87
2018-06-25T19:40:49.525Z,22.77
2018-06-25T19:43:17.375Z,25.12
2018-06-25T19:45:45.432Z,21.30
2018-06-25T19:48:13.472Z,25.72
2018-06-25T19:50:41.496Z,23.70
2018-06-25T19:53:09.583Z,25.20
2018-06-25T19:55:37.634Z,20.32
2018-06-25T19:58:05.683Z,23.27
2018-06-25T20:00:33.724Z,23.67
2018-06-25T20:03:01.812Z,25.33
2018-06-25T20:05:29.784Z,26.65
2018-06-25T20:07:57.845Z,22.65
2018-06-25T20:10:25.896Z,19.67
2018-06-25T20:12:54.022Z,27.22
2018-06-25T20:15:22.095Z,20.60
2018-06-25T20:17:50.124Z,25.70
2018-06-25T20:20:18.233Z,25.08
2018-06-25T20:22:46.263Z,21.87
2018-06-25T20:25:14.339Z,24.10
2018-06-25T20:27:42.380Z,28.23
2018-06-25T20:30:10.440Z,22.80
2018-06-25T20:32:38.460Z,20.80
2018-06-25T20:35:07.244Z,22.67
2018-06-25T20:37:35.288Z,22.58
2018-06-25T20:40:03.340Z,26.12
2018-06-25T20:42:31.384Z,27.43
2018-06-25T20:44:59.231Z,26.30
2018-06-25T20:47:27.320Z,25.72
2018-06-25T20:49:55.179Z,26.73
2018-06-25T20:52:23.226Z,24.72
2018-06-25T20:54:51.262Z,24.65
2018-06-25T20:57:19.312Z,20.35
2018-06-25T20:59:47.348Z,23.75
2018-06-25T21:02:15.385Z,23.30
2018-06-25T21:04:43.456Z,19.87
2018-06-25T21:07:11.488Z,20.20
2018-06-25T21:09:39.514Z,19.42
2018-06-25T21:12:07.560Z,19.35
2018-06-25T21:14:35.604Z,20.72
2018-06-25T21:17:03.756Z,19.45
2018-06-25T21:19:32.009Z,17.70
2018-06-25T21:22:00.067Z,17.23
2018-06-25T21:24:28.113Z,16.48
2018-06-25T21:26:56.152Z,14.65
2018-06-25T21:29:23.987Z,18.70
2018-06-25T21:31:52.027Z,21.70
2018-06-25T21:34:20.057Z,16.87
2018-06-25T21:36:48.105Z,16.12
2018-06-25T21:39:16.146Z,16.27
2018-06-25T21:41:44.179Z,17.00
2018-06-25T21:44:12.240Z,17.82
2018-06-25T21:46:40.079Z,12.88
2018-06-25T21:49:08.106Z,14.43
2018-06-25T21:51:36.168Z,12.30
2018-06-25T21:54:04.373Z,13.05
2018-06-25T21:56:32.451Z,14.33
2018-06-25T21:59:00.520Z,14.43
2018-06-25T22:01:28.564Z,14.30
2018-06-25T22:03:56.592Z,14.95
2018-06-25T22:06:24.639Z,13.78
2018-06-25T22:08:52.669Z,10.50
2018-06-25T22:11:20.720Z,12.55
2018-06-25T22:13:48.749Z,12.82
2018-06-25T22:16:16.801Z,10.10
2018-06-25T22:18:44.908Z,13.58
2018-06-25T22:21:12.922Z,12.43
2018-06-25T22:23:40.952Z,11.18
2018-06-25T22:26:09.020Z,11.30
2018-06-25T22:28:36.878Z,12.35
2018-06-25T22:31:04.987Z,9.17
2018-06-25T22:33:33.037Z,11.00
2018-06-25T22:36:00.860Z,8.50
2018-06-25T22:38:29.028Z,9.60
2018-06-25T22:40:57.064Z,9.68
2018-06-25T22:43:25.116Z,12.43
2018-06-25T22:45:52.950Z,9.28
2018-06-25T22:48:20.980Z,11.75
2018-06-25T22:50:49.024Z,11.00
2018-06-25T22:53:17.064Z,10.13
2018-06-25T22:55:45.109Z,12.68
2018-06-25T22:58:13.156Z,13.13
2018-06-25T23:00:41.180Z,13.45
2018-06-25T23:03:09.217Z,13.32
2018-06-25T23:05:37.285Z,10.82
2018-06-25T23:08:05.605Z,12.10
2018-06-25T23:10:33.641Z,10.90
2018-06-25T23:13:01.699Z,11.30
2018-06-25T23:15:29.717Z,12.30
2018-06-25T23:17:57.760Z,10.32
2018-06-25T23:20:25.809Z,10.13
2018-06-25T23:22:56.811Z,12.10
2018-06-25T23:25:25.255Z,11.70
2018-06-25T23:27:53.393Z,11.97
2018-06-25T23:30:21.688Z,10.90
2018-06-25T23:32:49.735Z,13.88
2018-06-25T23:35:18.445Z,11.43
2018-06-25T23:37:46.638Z,11.35
2018-06-25T23:40:14.688Z,12.05
2018-06-25T23:42:42.780Z,14.20
2018-06-25T23:54:06.765Z,11.90
2018-06-25T23:59:25.347Z,12.47
